Northern Sonoma County Latest

22 Stations

15 Minute Data | America/Los_Angeles
as of 1/27/23 5:57 AM PST
Station Date Time Temp (°F) RH (%) Dew Pt (°F) Wind Spd (mph) Wind Dir (°) Wind Gust (mph) Latest Rain (In) Daily Rain (In) Daily Min Temp (°F) Daily Max Temp (°F)
Rockpile Upper (Cooley) 1/27/23 0545 51.8   2.5 30   1 21.7   1.4 5.3   5.5 NNW | 343 8.1   10.1 0.00 0.00 51.2   2.1 55.5   0.9
Rockpile Lower (Cooley) 1/27/23 0530 48.2   10.0 47   21 28.7   5.3 1.7   2.9 ENE | 57 2.9   7.8 0.00 0.00 47.0   9.2 53.4   6.1
Cloverdale-East (Ranch 83) 1/27/23 0545 37.9   10.1 92   39 35.8   4.1 3.5   4.4 NNW | 332 8.9   6.6 0.00 0.00 34.4   9.6 40.2   12.6
Cloverdale-SE (Ranch 38) 1/27/23 0545 43.4   3.5 74   18 35.7   3.6 5.2   0.8 NNW | 347 9.9   2.0 0.00 0.00 39.4   6.8 47.1   8.3
Geyserville-North (Hoffman) 1/27/23 0545 33.1   17.6 94   46 31.7   0.3 1.7   3.6 WNW | 296 3.0   11.3 0.00 0.00 32.3   15.1 38.6   13.7
Geyserville (Ranch 3) 1/27/23 0545 33.7   16.4 96   46 32.6   0.6 2.6   5.8 W | 266 3.6   13.8 0.00 0.00 33.4   13.9 39.3   12.8
Geyserville-East (Ranch 40) 1/27/23 0545 41.5   16.0 83   49 36.8   7.6 3.2   0.6 N | 9 4.2   3.5 0.00 0.00 40.7   9.9 48.9   14.0
Geyserville-South (Nervo Station) 1/27/23 0545 37.9   16.1 - - 0.0   6.6 N | 0 0.0   12.5 0.00 0.00 37.3   10.4 45.3   19.2
Whitton Ranch (201e) 1/27/23 0545 34.0   7.9 99   27 33.7   0.1 1.6   0.9 NW | 323 2.4   4.3 0.00 0.00 32.3   6.8 37.8   24.6
Lytton East (Shop Hill Bottom) 1/27/23 0545 35.5   5.4 98   24 35.0   1.9 1.9   0.9 WSW | 240 3.6   1.5 0.00 0.00 33.4   6.2 40.4   8.8
Lytton East (Hill 5) 1/27/23 0545 37.0   9.8 96   39 35.9   3.6 2.1   1.5 WNW | 285 3.6   2.8 0.00 0.00 35.6   9.1 44.6   10.4
Lytton West Lower (Lew 6) 1/27/23 0545 33.3   5.2 98   16 32.9   0.8 0.3   1.8 WSW | 240 1.5   3.6 0.00 0.00 32.6   5.1 37.8   10.6
Lytton West Hill (23PS) 1/27/23 0545 35.8   13.8 96   45 34.8   2.2 4.0   1.4 WNW | 291 5.4   2.1 0.00 0.00 35.1   11.0 42.8   12.2
Lytton (River Oaks) 1/27/23 0545 30.8   9.0 98   20 30.3   3.2 2.0   2.2 WSW | 247 3.3   4.3 0.00 0.00 30.4   7.0 35.1   19.3
Lytton (River Oaks Remote) 1/27/23 0545 30.2   10.0 99   22 30.0   3.6 - - - - - 29.9   8.8 33.9   22.9
Jimtown-North (Piccolo-R15) 1/26/23 1115 68.0   8.4 27   21 32.5   7.2 1.6   1.0 ENE | 71 3.9   1.8 0.00 0.00 41.4   10.7 70.5   10.0
Jimtown-NE (Red Fan) 1/27/23 0545 32.8   21.8 98   55 32.4   0.4 0.6   4.3 NNW | 338 1.6   9.0 0.00 0.00 32.2   9.6 37.4   26.9
HWY 128/Chalk Hill Rd (Landslide) 1/27/23 0545 31.6   22.6 100   58 31.6   0.1 1.0   2.6 SSW | 195 2.1   4.2 0.00 0.00 31.3   21.7 37.7   27.2
N Chalk Hill Rd (Ranch 63) 1/27/23 0545 32.2   14.2 98   40 31.7   0.9 1.0   2.3 NNW | 343 2.5   3.8 0.00 0.00 31.9   12.6 37.9   27.4
Knights Valley (Bavarian Lion) 1/27/23 0545 32.9   28.6 97   70 32.1   5.0 0.9   4.0 SW | 234 1.8   18.8 0.00 0.00 32.5   26.9 37.6   25.9
Upper Dry Creek Valley 1/27/23 0545 33.4   13.8 98   35 32.8   2.4 1.0   3.8 WNW | 289 2.2   6.8 0.00 0.00 33.0   11.2 37.8   10.2
Lower Dry Creek Valley 1/27/23 0545 33.1   6.2 100   17 33.1   1.4 2.9   0.6 NNW | 346 4.0   0.4 0.00 0.00 32.5   6.0 38.8   12.3
Max     51.8 100 36.8 5.3 - 9.9 0.00 0.00 51.2 55.5
Avg     36.2 90 32.5 2.1 - 3.7 0.00 - - -
Min     30.2 30 21.7 0.0 - 0.0 0.00 0.00 29.9 33.9